PORTS® Data Listing: 8770613 Morgans Point, TX

CO-OPS RAW PORTS DATA

************************      PRELIMINARY DATA      ************************** 

     THIS RAW DATA HAS NOT BEEN SUBJECT TO THE NATIONAL OCEAN SERVICE'S        
     QUALITY CONTROL OR QUALITY ASSURANCE PROCEDURES AND DOES NOT MEET         
     THE CRITERIA AND STANDARDS OF OFFICIAL NATIONAL OCEAN SERVICE             
     DATA.  IT IS RELEASED FOR LIMITED PUBLIC USE AS PRELIMINARY DATA TO       
     BE USED ONLY WITH APPROPRIATE CAUTION.                                    

************************      PRELIMINARY DATA      ************************** 


       CD   -   Calendar date
       T    -   Time
       TZ   -   Timezone
       PW   -   Predicted water level (feet above MLLW)
       OW   -   Observed water level (feet above MLLW)
       WS   -   Wind speed (knots)
       WD   -   Wind direction (degrees true)
       WG   -   Wind gust (knots)
       AT   -   Air temperature (degrees farenheit)
       WT   -   Water temperature (degrees farenheit)
       AP   -   Air pressure (millibars)
       SA   -   Salinty (PSU - Practical Salinity Units)
       SG   -   Specific gravity
       RH   -   Relative humidity
       AG   -   Air gap (feet)
       VI   -   Visibility (nautical miles)

       ** NOTE **
       A variable that has its data fields filled with "9"s, indicates that
       data was not collected for that sample period.
       **********


STATION NAME: Morgans Point (8770613)
****************************************************************************************************
    CD       T    TZ    PW     OW    WS   WD   WG    AT    WT    AP    SA    SG     RH    AG   VI
****************************************************************************************************
2020/02/16 13:18 CST    0.23   1.07    5  166    6  63.5  60.8 1016.0 14.4  1.011 -99.9 -99.99 -9.99
2020/02/16 13:24 CST    0.25   1.03    5  156    7  64.0  60.6 1016.0 15.0  1.011 -99.9 -99.99 -9.99
2020/02/16 13:30 CST    0.28   1.13    6  148    7  63.5  60.4 1015.9 15.5  1.012 -99.9 -99.99 -9.99
2020/02/16 13:36 CST    0.30   1.14    7  142    8  63.0  60.4 1015.9 15.6  1.012 -99.9 -99.99 -9.99
2020/02/16 13:42 CST    0.32   1.11    6  142    7  63.3  60.4 1015.8 15.7  1.012 -99.9 -99.99 -9.99
2020/02/16 13:48 CST    0.34   1.24    8  138    8  62.2  60.4 1015.6 15.8  1.012 -99.9 -99.99 -9.99
2020/02/16 13:54 CST    0.36   1.21    6  144    8  62.6  60.4 1015.5 16.0  1.012 -99.9 -99.99 -9.99
2020/02/16 14:00 CST    0.39   1.28    6  143    7  63.0  60.4 1015.4 16.0  1.012 -99.9 -99.99 -9.99
2020/02/16 14:06 CST    0.41   1.24    5  151    7  63.9  60.4 1015.3 16.1  1.012 -99.9 -99.99 -9.99
2020/02/16 14:12 CST    0.43   1.34    4  146    5  64.4  60.4 1015.2 15.6  1.012 -99.9 -99.99 -9.99
2020/02/16 14:18 CST    0.44   1.33    5  139    6  64.9  60.4 1015.0 15.0  1.011 -99.9 -99.99 -9.99
2020/02/16 14:24 CST    0.46   1.32    5  139    7  65.3  60.4 1015.0 15.0  1.011 -99.9 -99.99 -9.99
2020/02/16 14:30 CST    0.48   1.35    4  139    7  65.3  60.4 1015.0 16.2  1.012 -99.9 -99.99 -9.99
2020/02/16 14:36 CST    0.50   1.41    5  146    7  65.8  60.6 1014.9 16.1  1.012 -99.9 -99.99 -9.99
2020/02/16 14:42 CST    0.52   1.38    5  136    7  66.2  60.6 1015.0 16.1  1.012 -99.9 -99.99 -9.99
2020/02/16 14:48 CST    0.53   1.39    6  128    7  66.2  60.8 1015.0 16.1  1.012 -99.9 -99.99 -9.99
2020/02/16 14:54 CST    0.55   1.38    7  122    8  66.2  60.8 1014.8 16.2  1.012 -99.9 -99.99 -9.99
2020/02/16 15:00 CST    0.56   1.41    8  107    9  66.2  61.0 1014.6 16.2  1.012 -99.9 -99.99 -9.99
2020/02/16 15:06 CST    0.58   1.46    7   92   10  66.0  61.0 1014.7 15.5  1.012 -99.9 -99.99 -9.99
2020/02/16 15:12 CST    0.59   1.45    7  104    9  66.0  60.8 1014.6 14.8  1.011 -99.9 -99.99 -9.99
2020/02/16 15:18 CST    0.61   1.45    7   93    8  66.2  60.6 1014.5 14.8  1.011 -99.9 -99.99 -9.99
2020/02/16 15:24 CST    0.62   1.45    7   96    9  66.6  60.6 1014.3 14.7  1.011 -99.9 -99.99 -9.99
2020/02/16 15:30 CST    0.63   1.55    6   90    8  66.7  60.6 1014.2 14.6  1.011 -99.9 -99.99 -9.99
2020/02/16 15:36 CST    0.64   1.47    6   85    7  66.7  60.6 1014.3 16.0  1.012 -99.9 -99.99 -9.99
2020/02/16 15:42 CST    0.66   1.50    6  103    8  67.1  60.6 1014.3 15.9  1.012 -99.9 -99.99 -9.99
2020/02/16 15:48 CST    0.67   1.55    6   99    8  67.1  60.8 1014.3 15.8  1.012 -99.9 -99.99 -9.99
2020/02/16 15:54 CST    0.68   1.65    6   96    8  67.3  60.8 1014.3 15.8  1.012 -99.9 -99.99 -9.99
2020/02/16 16:00 CST    0.69   1.52    6   96    7  67.3  60.8 1014.3 15.8  1.012 -99.9 -99.99 -9.99
2020/02/16 16:06 CST    0.69   1.41    6   94    7  67.3  60.8 1014.4 15.8  1.012 -99.9 -99.99 -9.99
2020/02/16 16:12 CST    0.70   1.63    7  104    8  67.3  60.8 1014.5 15.8  1.012 -99.9 -99.99 -9.99
2020/02/16 16:18 CST    0.71   1.56    6  102    7  67.3  60.8 1014.7 14.6  1.011 -99.9 -99.99 -9.99
2020/02/16 16:24 CST    0.72   1.51    6  106    7  67.3  60.8 1014.7 15.1  1.011 -99.9 -99.99 -9.99
2020/02/16 16:30 CST    0.72   1.56    4   98    7  67.3  61.0 1014.8 14.7  1.011 -99.9 -99.99 -9.99
2020/02/16 16:36 CST    0.73   1.56    6  111    8  67.3  61.0 1014.6 14.6  1.011 -99.9 -99.99 -9.99
2020/02/16 16:42 CST    0.73   1.59    5  145    8  67.3  61.0 1014.7 14.6  1.011 -99.9 -99.99 -9.99
2020/02/16 16:48 CST    0.74   1.63    3  180    5  64.9  60.8 1014.7 14.7  1.011 -99.9 -99.99 -9.99
2020/02/16 16:54 CST    0.74   1.50    4  166    6  64.9  60.8 1014.7 14.7  1.011 -99.9 -99.99 -9.99
2020/02/16 17:00 CST    0.74   1.67    4  150    8  65.1  60.6 1014.7 14.7  1.011 -99.9 -99.99 -9.99
2020/02/16 17:06 CST    0.75   1.61    9  140   13  63.9  60.6 1014.8 14.8  1.011 -99.9 -99.99 -9.99
2020/02/16 17:12 CST    0.75   1.69    7  154   11  63.0  60.6 1014.7 14.8  1.011 -99.9 -99.99 -9.99
2020/02/16 17:18 CST    0.75   1.59    9  150   12  62.2  60.6 1014.8 14.8  1.011 -99.9 -99.99 -9.99
2020/02/16 17:24 CST    0.75   1.72   10  155   13  61.0  60.6 1014.8 14.9  1.011 -99.9 -99.99 -9.99
2020/02/16 17:30 CST    0.76   1.71    9  151   13  60.6  60.6 1014.7 14.9  1.011 -99.9 -99.99 -9.99
2020/02/16 17:36 CST    0.76   1.71   10  149   12  60.4  60.6 1014.9 15.0  1.011 -99.9 -99.99 -9.99
2020/02/16 17:42 CST    0.76   1.77    8  152   12  60.3  60.6 1014.9 14.9  1.011 -99.9 -99.99 -9.99
2020/02/16 17:48 CST    0.76   1.76   11  155   13  59.9  60.6 1014.9 14.9  1.011 -99.9 -99.99 -9.99
2020/02/16 17:54 CST    0.76   1.69    9  152   11  59.9  60.6 1014.8 14.9  1.011 -99.9 -99.99 -9.99
2020/02/16 18:00 CST    0.76   1.72    9  158   13  59.7  60.6 1014.8 14.9  1.011 -99.9 -99.99 -9.99
2020/02/16 18:06 CST    0.76   1.69    7  158   13  59.9  60.6 1014.9 15.1  1.011 -99.9 -99.99 -9.99
2020/02/16 18:12 CST    0.76   1.69    9  155   12  59.5  60.6 1014.9 15.0  1.011 -99.9 -99.99 -9.99
2020/02/16 18:18 CST    0.76   1.77   10  155   13  59.5  60.6 1014.8 15.2  1.011 -99.9 -99.99 -9.99
2020/02/16 18:24 CST    0.76   1.72    9  156   12  59.5  60.8 1014.8 15.2  1.011 -99.9 -99.99 -9.99
2020/02/16 18:30 CST    0.75   1.69    8  157   12  59.5  60.8 1014.9 15.9  1.012 -99.9 -99.99 -9.99
2020/02/16 18:36 CST    0.75   1.69   10  156   14  59.5  60.8 1015.0 15.8  1.012 -99.9 -99.99 -9.99
2020/02/16 18:42 CST    0.75   1.66    6  153   13  59.7  60.8 1015.1 15.5  1.012 -99.9 -99.99 -9.99
2020/02/16 18:48 CST    0.74   1.67    8  156   12  59.7  60.8 1015.2 15.7  1.012 -99.9 -99.99 -9.99
2020/02/16 18:54 CST    0.74   1.66    8  157   11  59.7  60.8 1015.1 15.6  1.012 -99.9 -99.99 -9.99
2020/02/16 19:00 CST    0.73   1.66    8  162   11  59.9  60.8 1014.9 16.0  1.012 -99.9 -99.99 -9.99
2020/02/16 19:06 CST    0.73   1.70    8  166   13  59.9  60.8 1015.0 16.1  1.012 -99.9 -99.99 -9.99
2020/02/16 19:12 CST    0.72   1.62    7  169   11  59.9  60.8 1015.0 15.8  1.012 -99.9 -99.99 -9.99
2020/02/16 19:18 CST    0.72   1.50    7  162   11  59.9  60.8 1015.0 16.4  1.012 -99.9 -99.99 -9.99
2020/02/16 19:24 CST    0.71   1.64    5  158   10  59.9  60.8 1015.1 15.5  1.012 -99.9 -99.99 -9.99
2020/02/16 19:30 CST    0.70   1.61    6  155    7  59.9  60.8 1015.1 15.7  1.012 -99.9 -99.99 -9.99
2020/02/16 19:36 CST    0.70   1.67    5  157    7  59.9  60.8 1015.1 15.7  1.012 -99.9 -99.99 -9.99
2020/02/16 19:42 CST    0.69   1.63    5  157    7  59.9  60.8 1015.1 15.7  1.012 -99.9 -99.99 -9.99
2020/02/16 19:48 CST    0.68   1.59    5  154    7  59.9  60.8 1015.1 15.7  1.012 -99.9 -99.99 -9.99
2020/02/16 19:54 CST    0.67   1.64    6  153    8  60.1  60.8 1015.0 15.8  1.012 -99.9 -99.99 -9.99
2020/02/16 20:00 CST    0.66   1.63    6  153    8  60.1  60.8 1015.0 15.8  1.012 -99.9 -99.99 -9.99
2020/02/16 20:06 CST    0.66   1.57    5  151    8  60.1  60.8 1015.1 15.1  1.011 -99.9 -99.99 -9.99
2020/02/16 20:12 CST    0.65   1.61    6  153    7  60.3  60.8 1015.1 15.0  1.011 -99.9 -99.99 -9.99
2020/02/16 20:18 CST    0.64   1.60    6  155    8  60.3  60.8 1015.0 15.2  1.011 -99.9 -99.99 -9.99
2020/02/16 20:24 CST    0.63   1.65    6  153    8  60.3  61.0 1015.0 16.3  1.012 -99.9 -99.99 -9.99
2020/02/16 20:30 CST    0.63   1.62    5  160    8  60.3  61.0 1015.1 16.4  1.012 -99.9 -99.99 -9.99
2020/02/16 20:36 CST    0.62   1.60    5  165    7  60.3  61.0 1015.1 15.2  1.011 -99.9 -99.99 -9.99
2020/02/16 20:42 CST    0.61   1.62    6  169    9  60.3  61.0 1015.1 15.6  1.012 -99.9 -99.99 -9.99
2020/02/16 20:48 CST    0.60   1.65    6  165    9  60.3  61.0 1015.1 16.3  1.012 -99.9 -99.99 -9.99
2020/02/16 20:54 CST    0.60   1.61    6  164    9  60.3  61.0 1015.0 16.3  1.012 -99.9 -99.99 -9.99
2020/02/16 21:00 CST    0.59   1.60    4  165    8  60.3  61.0 1015.2 16.0  1.012 -99.9 -99.99 -9.99
2020/02/16 21:06 CST    0.59   1.60    5  155    7  60.3  61.0 1015.1 15.6  1.012 -99.9 -99.99 -9.99
2020/02/16 21:12 CST    0.58   1.61    5  153    7  60.3  61.2 1015.1 15.8  1.012 -99.9 -99.99 -9.99
2020/02/16 21:18 CST    0.58   1.58    4  155    7  60.1  61.2 1015.1 16.2  1.012 -99.9 -99.99 -9.99
2020/02/16 21:24 CST    0.57   1.56    3  142    6  60.1  61.2 1015.3 15.3  1.012 -99.9 -99.99 -9.99
2020/02/16 21:30 CST    0.57   1.58    4  124    5  60.1  61.2 1015.2 15.6  1.012 -99.9 -99.99 -9.99
2020/02/16 21:36 CST    0.57   1.59    5  129    5  59.9  61.3 1015.0 16.0  1.012 -99.9 -99.99 -9.99
2020/02/16 21:42 CST    0.56   1.55    4  125    5  59.9  61.3 1015.1 16.3  1.012 -99.9 -99.99 -9.99
2020/02/16 21:48 CST    0.56   1.50    3  112    4  59.9  61.3 1015.1 16.3  1.012 -99.9 -99.99 -9.99
2020/02/16 21:54 CST    0.55   1.48    4  123    4  59.7  61.3 1015.1 16.3  1.012 -99.9 -99.99 -9.99
2020/02/16 22:00 CST    0.55   1.52    4  118    4  59.9  61.3 1015.0 16.2  1.012 -99.9 -99.99 -9.99
2020/02/16 22:06 CST    0.55   1.52    3  114    4  59.9  61.3 1014.9 15.7  1.012 -99.9 -99.99 -9.99
2020/02/16 22:12 CST    0.54   1.48    3  105    4  59.9  61.3 1014.9 15.5  1.012 -99.9 -99.99 -9.99
2020/02/16 22:18 CST    0.54   1.45    4  131    4  60.1  61.3 1015.1 15.0  1.011 -99.9 -99.99 -9.99
2020/02/16 22:24 CST    0.53   1.47    3  133    4  60.1  61.3 1015.0 14.7  1.011 -99.9 -99.99 -9.99
2020/02/16 22:30 CST    0.53   1.41    4  128    5  60.1  61.3 1014.9 14.7  1.011 -99.9 -99.99 -9.99
2020/02/16 22:36 CST    0.53   1.47    5  130    6  60.1  61.5 1015.0 14.7  1.011 -99.9 -99.99 -9.99
2020/02/16 22:42 CST    0.52   1.40    5  128    6  59.9  61.5 1015.0 14.7  1.011 -99.9 -99.99 -9.99
2020/02/16 22:48 CST    0.52   1.46    4  135    6  59.9  61.5 1015.0 15.5  1.012 -99.9 -99.99 -9.99
2020/02/16 22:54 CST    0.51   1.44    4  134    5  59.9  61.5 1014.9 15.2  1.011 -99.9 -99.99 -9.99
2020/02/16 23:00 CST    0.50   1.42    4  133    5  59.7  61.5 1014.9 15.3  1.012 -99.9 -99.99 -9.99
2020/02/16 23:06 CST    0.50   1.40    4  123    5  59.7  61.5 1015.0 15.5  1.012 -99.9 -99.99 -9.99
2020/02/16 23:12 CST    0.49   1.43    4  101    5  59.5  61.5 1014.9 15.5  1.012 -99.9 -99.99 -9.99
2020/02/16 23:18 CST    0.49   1.45    5  104    6  59.5  61.5 1015.0 15.7  1.012 -99.9 -99.99 -9.99
2020/02/16 23:24 CST    0.48   1.44    5  113    6  59.5  61.5 1014.9 16.1  1.012 -99.9 -99.99 -9.99
2020/02/16 23:30 CST    0.47   1.40    5  111    6  59.5  61.5 1014.7 14.9  1.011 -99.9 -99.99 -9.99
2020/02/16 23:36 CST    0.47   1.37    5  107    6  59.4  61.5 1014.8 15.8  1.012 -99.9 -99.99 -9.99
2020/02/16 23:42 CST    0.46   1.41    5  111    6  59.4  61.5 1014.7 15.8  1.012 -99.9 -99.99 -9.99
2020/02/16 23:48 CST    0.45   1.40    5  107    6  59.5  61.5 1014.7 15.3  1.011 -99.9 -99.99 -9.99
2020/02/16 23:54 CST    0.45   1.32    6  106    7  59.5  61.5 1014.6 15.7  1.012 -99.9 -99.99 -9.99
2020/02/17 00:00 CST    0.44   1.36    5  106    7  59.5  61.5 1014.7 15.7  1.012 -99.9 -99.99 -9.99
2020/02/17 00:06 CST    0.43   1.37    4  103    9  59.9  61.5 1014.6 15.8  1.012 -99.9 -99.99 -9.99
2020/02/17 00:12 CST    0.43   1.33    5  112    6  59.7  61.3 1014.4 14.8  1.011 -99.9 -99.99 -9.99
2020/02/17 00:18 CST    0.42   1.30    5  105    7  59.7  61.3 1014.3 15.4  1.012 -99.9 -99.99 -9.99
2020/02/17 00:24 CST    0.41   1.29    5  111    6  59.7  61.3 1014.2 16.0  1.012 -99.9 -99.99 -9.99
2020/02/17 00:30 CST    0.41   1.29    6  114    7  59.5  61.3 1014.1 16.0  1.012 -99.9 -99.99 -9.99
2020/02/17 00:36 CST    0.40   1.32    5  109    6  59.5  61.3 1014.1 15.8  1.012 -99.9 -99.99 -9.99
2020/02/17 00:42 CST    0.39   1.29    6  105    7  59.7  61.3 1014.0 16.0  1.012 -99.9 -99.99 -9.99
2020/02/17 00:48 CST    0.38   1.26    5  108    7  59.7  61.3 1014.1 15.4  1.012 -99.9 -99.99 -9.99
2020/02/17 00:54 CST    0.38   1.27    5  109    6  59.7  61.3 1014.1 16.1  1.012 -99.9 -99.99 -9.99
2020/02/17 01:00 CST    0.37   1.27    4  104    6  59.7  61.3 1014.0 15.7  1.012 -99.9 -99.99 -9.99
2020/02/17 01:06 CST    0.36   1.26    4  109    5  59.7  61.3 1014.0 16.0  1.012 -99.9 -99.99 -9.99
2020/02/17 01:12 CST    0.35   1.29    4   98    4  59.5  61.3 1013.9 16.1  1.012 -99.9 -99.99 -9.99
2020/02/17 01:18 CST    0.34   1.24    4   97    5  59.5  61.3 1013.8 16.1  1.012 -99.9 -99.99 -9.99
2020/02/17 01:24 CST    0.34   1.26    4  115    5  59.5  61.3 1013.8 16.1  1.012 -99.9 -99.99 -9.99
2020/02/17 01:30 CST    0.33   1.26    5  119    6  59.9  61.3 1013.7 15.1  1.011 -99.9 -99.99 -9.99
2020/02/17 01:36 CST    0.32   1.22    5  122    6  59.9  61.3 1013.7 15.6  1.012 -99.9 -99.99 -9.99
2020/02/17 01:42 CST    0.31   1.22    5  125    7  59.9  61.3 1013.6 15.5  1.012 -99.9 -99.99 -9.99
2020/02/17 01:48 CST    0.30   1.23    5  129    7  59.9  61.3 1013.5 15.4  1.012 -99.9 -99.99 -9.99
2020/02/17 01:54 CST    0.29   1.18    5  130    6  59.7  61.3 1013.4 16.0  1.012 -99.9 -99.99 -9.99
2020/02/17 02:00 CST    0.28   1.18    4  120    6  59.7  61.3 1013.5 15.3  1.012 -99.9 -99.99 -9.99
2020/02/17 02:06 CST    0.26   1.15    4  110    5  59.7  61.3 1013.4 16.1  1.012 -99.9 -99.99 -9.99
2020/02/17 02:12 CST    0.25   1.16    4  114    5  59.7  61.3 1013.3 16.1  1.012 -99.9 -99.99 -9.99
2020/02/17 02:18 CST    0.24   1.18    5  113    6  59.9  61.3 1013.2 16.0  1.012 -99.9 -99.99 -9.99
2020/02/17 02:24 CST    0.23   1.13    5  119    5  60.1  61.3 1013.1 15.8  1.012 -99.9 -99.99 -9.99
2020/02/17 02:30 CST    0.22   1.09    4  116    5  60.1  61.3 1013.0 15.9  1.012 -99.9 -99.99 -9.99
2020/02/17 02:36 CST    0.20   1.10    4  125    6  60.1  61.3 1012.9 14.8  1.011 -99.9 -99.99 -9.99
2020/02/17 02:42 CST    0.19   1.10    4  137    5  60.1  61.3 1012.8 14.7  1.011 -99.9 -99.99 -9.99
2020/02/17 02:48 CST    0.18   1.09    4  137    5  60.1  61.3 1012.6 15.3  1.011 -99.9 -99.99 -9.99
2020/02/17 02:54 CST    0.16   1.03    5  140    6  60.3  61.3 1012.6 15.0  1.011 -99.9 -99.99 -9.99
2020/02/17 03:00 CST    0.15   1.02    4  141    6  60.1  61.3 1012.6 15.2  1.011 -99.9 -99.99 -9.99
2020/02/17 03:06 CST    0.13   1.01    4  142    6  60.3  61.3 1012.6 15.8  1.012 -99.9 -99.99 -9.99
2020/02/17 03:12 CST    0.12   0.98    4  141    5  60.3  61.3 1012.6 15.8  1.012 -99.9 -99.99 -9.99
2020/02/17 03:18 CST    0.10   0.96    3  141    4  60.4  61.3 1012.6 15.8  1.012 -99.9 -99.99 -9.99
2020/02/17 03:24 CST    0.09   0.95    4  138    5  60.6  61.3 1012.5 15.3  1.011 -99.9 -99.99 -9.99
2020/02/17 03:30 CST    0.07   0.95    4  134    5  60.6  61.5 1012.6 15.8  1.012 -99.9 -99.99 -9.99
2020/02/17 03:36 CST    0.05   0.95    4  123    5  60.6  61.5 1012.6 15.8  1.012 -99.9 -99.99 -9.99
2020/02/17 03:42 CST    0.04   0.88    4  121    4  60.6  61.5 1012.6 15.8  1.012 -99.9 -99.99 -9.99
2020/02/17 03:48 CST    0.02   0.88    4  119    4  60.6  61.5 1012.6 15.8  1.012 -99.9 -99.99 -9.99
2020/02/17 03:54 CST    0.00   0.88    4  117    5  60.6  61.5 1012.6 15.8  1.012 -99.9 -99.99 -9.99
2020/02/17 04:00 CST   -0.01   0.87    5  114    6  60.8  61.5 1012.5 15.4  1.012 -99.9 -99.99 -9.99
2020/02/17 04:06 CST   -0.03   0.85    5  117    6  60.8  61.5 1012.5 15.6  1.012 -99.9 -99.99 -9.99
2020/02/17 04:12 CST   -0.05   0.83    5  125    7  60.8  61.5 1012.5 15.5  1.012 -99.9 -99.99 -9.99
2020/02/17 04:18 CST   -0.07   0.81    5  129    7  60.8  61.5 1012.5 15.2  1.011 -99.9 -99.99 -9.99
2020/02/17 04:24 CST   -0.08   0.79    4  139    5  60.6  61.5 1012.5 15.8  1.012 -99.9 -99.99 -9.99
2020/02/17 04:30 CST   -0.10   0.78    4  133    6  60.8  61.5 1012.5 15.8  1.012 -99.9 -99.99 -9.99
2020/02/17 04:36 CST   -0.12   0.77    4  127    4  60.6  61.5 1012.5 15.8  1.012 -99.9 -99.99 -9.99
2020/02/17 04:42 CST   -0.14   0.76    4  123    6  60.6  61.5 1012.5 14.9  1.011 -99.9 -99.99 -9.99
2020/02/17 04:48 CST   -0.16   0.73    3  118    4  60.6  61.5 1012.5 14.3  1.011 -99.9 -99.99 -9.99
2020/02/17 04:54 CST   -0.17   0.71    3  122    3  60.8  61.7 1012.5 14.5  1.011 -99.9 -99.99 -9.99
2020/02/17 05:00 CST   -0.19   0.68    4  126    5  60.8  61.7 1012.5 15.4  1.012 -99.9 -99.99 -9.99
2020/02/17 05:06 CST   -0.21   0.68    4  129    6  60.8  61.7 1012.4 15.1  1.011 -99.9 -99.99 -9.99
2020/02/17 05:12 CST   -0.23   0.65    3  128    5  61.0  61.7 1012.4 15.3  1.011 -99.9 -99.99 -9.99
2020/02/17 05:18 CST   -0.25   0.64    4  118    5  61.2  61.7 1012.4 15.7  1.012 -99.9 -99.99 -9.99
2020/02/17 05:24 CST   -0.27   0.60    4  118    5  61.3  61.7 1012.4 15.7  1.012 -99.9 -99.99 -9.99
2020/02/17 05:30 CST   -0.28   0.60    4  112    5  61.3  61.7 1012.5 15.6  1.012 -99.9 -99.99 -9.99
2020/02/17 05:36 CST   -0.30   0.59    4  103    5  61.5  61.7 1012.6 15.6  1.012 -99.9 -99.99 -9.99
2020/02/17 05:42 CST   -0.32   0.57    3  105    5  61.7  61.7 1012.7 15.6  1.012 -99.9 -99.99 -9.99
2020/02/17 05:48 CST   -0.34   0.53    4  111    5  61.7  61.7 1012.7 15.6  1.012 -99.9 -99.99 -9.99
2020/02/17 05:54 CST   -0.36   0.51    3  115    4  61.7  61.7 1012.9 15.0  1.011 -99.9 -99.99 -9.99
2020/02/17 06:00 CST   -0.37   0.51    4  123    5  61.7  61.7 1012.9 14.3  1.011 -99.9 -99.99 -9.99
2020/02/17 06:06 CST   -0.39   0.49    4  123    5  61.9  61.7 1012.9 14.1  1.011 -99.9 -99.99 -9.99
2020/02/17 06:12 CST   -0.41   0.47    4  121    6  61.9  61.7 1013.0 14.1  1.011 -99.9 -99.99 -9.99
2020/02/17 06:18 CST   -0.42   0.44    4  116    5  61.9  61.7 1013.0 14.2  1.011 -99.9 -99.99 -9.99
2020/02/17 06:24 CST   -0.44   0.42    4  114    5  61.9  61.7 1013.0 15.2  1.011 -99.9 -99.99 -9.99
2020/02/17 06:30 CST   -0.45   0.41    4  121    5  61.9  61.7 1013.0 14.2  1.011 -99.9 -99.99 -9.99
2020/02/17 06:36 CST   -0.47   0.38    4  116    5  61.7  61.7 1013.0 15.3  1.011 -99.9 -99.99 -9.99
2020/02/17 06:42 CST   -0.49   0.36    3  125    5  61.9  61.7 1013.0 15.2  1.011 -99.9 -99.99 -9.99
2020/02/17 06:48 CST   -0.50   0.34    4  120    4  61.7  61.7 1013.0 15.4  1.012 -99.9 -99.99 -9.99
2020/02/17 06:54 CST   -0.52   0.33    4  117    4  61.7  61.7 1013.1 15.3  1.011 -99.9 -99.99 -9.99
2020/02/17 07:00 CST   -0.53   0.31    3  116    4  61.7  61.7 1013.1 15.2  1.011 -99.9 -99.99 -9.99
2020/02/17 07:06 CST   -0.55   0.30    4  115    4  61.7  61.7 1013.1 14.8  1.011 -99.9 -99.99 -9.99
2020/02/17 07:12 CST   -0.56 -99.99 -999 -999 -999 -99.9 -99.9 -999.9 -9.9 -9.999 -99.9 -99.99 -9.99
2020/02/17 07:18 CST   -0.58 -99.99 -999 -999 -999 -99.9 -99.9 -999.9 -9.9 -9.999 -99.9 -99.99 -9.99
2020/02/17 07:24 CST   -0.59 -99.99 -999 -999 -999 -99.9 -99.9 -999.9 -9.9 -9.999 -99.9 -99.99 -9.99
2020/02/17 07:30 CST   -0.60 -99.99 -999 -999 -999 -99.9 -99.9 -999.9 -9.9 -9.999 -99.9 -99.99 -9.99
2020/02/17 07:36 CST   -0.62 -99.99 -999 -999 -999 -99.9 -99.9 -999.9 -9.9 -9.999 -99.9 -99.99 -9.99
2020/02/17 07:42 CST   -0.63 -99.99 -999 -999 -999 -99.9 -99.9 -999.9 -9.9 -9.999 -99.9 -99.99 -9.99
2020/02/17 07:48 CST   -0.64 -99.99 -999 -999 -999 -99.9 -99.9 -999.9 -9.9 -9.999 -99.9 -99.99 -9.99
2020/02/17 07:54 CST   -0.65 -99.99 -999 -999 -999 -99.9 -99.9 -999.9 -9.9 -9.999 -99.9 -99.99 -9.99
2020/02/17 08:00 CST   -0.67 -99.99 -999 -999 -999 -99.9 -99.9 -999.9 -9.9 -9.999 -99.9 -99.99 -9.99
2020/02/17 08:06 CST   -0.68 -99.99 -999 -999 -999 -99.9 -99.9 -999.9 -9.9 -9.999 -99.9 -99.99 -9.99
2020/02/17 08:12 CST   -0.69 -99.99 -999 -999 -999 -99.9 -99.9 -999.9 -9.9 -9.999 -99.9 -99.99 -9.99
2020/02/17 08:18 CST   -0.70 -99.99 -999 -999 -999 -99.9 -99.9 -999.9 -9.9 -9.999 -99.9 -99.99 -9.99
2020/02/17 08:24 CST   -0.71 -99.99 -999 -999 -999 -99.9 -99.9 -999.9 -9.9 -9.999 -99.9 -99.99 -9.99
2020/02/17 08:30 CST   -0.71 -99.99 -999 -999 -999 -99.9 -99.9 -999.9 -9.9 -9.999 -99.9 -99.99 -9.99
2020/02/17 08:36 CST   -0.72 -99.99 -999 -999 -999 -99.9 -99.9 -999.9 -9.9 -9.999 -99.9 -99.99 -9.99
2020/02/17 08:42 CST   -0.73 -99.99 -999 -999 -999 -99.9 -99.9 -999.9 -9.9 -9.999 -99.9 -99.99 -9.99
2020/02/17 08:48 CST   -0.73 -99.99 -999 -999 -999 -99.9 -99.9 -999.9 -9.9 -9.999 -99.9 -99.99 -9.99
2020/02/17 08:54 CST   -0.73 -99.99 -999 -999 -999 -99.9 -99.9 -999.9 -9.9 -9.999 -99.9 -99.99 -9.99
2020/02/17 09:00 CST   -0.74 -99.99 -999 -999 -999 -99.9 -99.9 -999.9 -9.9 -9.999 -99.9 -99.99 -9.99
2020/02/17 09:06 CST   -0.74 -99.99 -999 -999 -999 -99.9 -99.9 -999.9 -9.9 -9.999 -99.9 -99.99 -9.99
2020/02/17 09:12 CST   -0.74 -99.99 -999 -999 -999 -99.9 -99.9 -999.9 -9.9 -9.999 -99.9 -99.99 -9.99
2020/02/17 09:18 CST   -0.74 -99.99 -999 -999 -999 -99.9 -99.9 -999.9 -9.9 -9.999 -99.9 -99.99 -9.99
2020/02/17 09:24 CST   -0.74 -99.99 -999 -999 -999 -99.9 -99.9 -999.9 -9.9 -9.999 -99.9 -99.99 -9.99
2020/02/17 09:30 CST   -0.73 -99.99 -999 -999 -999 -99.9 -99.9 -999.9 -9.9 -9.999 -99.9 -99.99 -9.99
2020/02/17 09:36 CST   -0.73 -99.99 -999 -999 -999 -99.9 -99.9 -999.9 -9.9 -9.999 -99.9 -99.99 -9.99
2020/02/17 09:42 CST   -0.72 -99.99 -999 -999 -999 -99.9 -99.9 -999.9 -9.9 -9.999 -99.9 -99.99 -9.99
2020/02/17 09:48 CST   -0.72 -99.99 -999 -999 -999 -99.9 -99.9 -999.9 -9.9 -9.999 -99.9 -99.99 -9.99
2020/02/17 09:54 CST   -0.71 -99.99 -999 -999 -999 -99.9 -99.9 -999.9 -9.9 -9.999 -99.9 -99.99 -9.99
2020/02/17 10:00 CST   -0.70 -99.99 -999 -999 -999 -99.9 -99.9 -999.9 -9.9 -9.999 -99.9 -99.99 -9.99
2020/02/17 10:06 CST   -0.69 -99.99 -999 -999 -999 -99.9 -99.9 -999.9 -9.9 -9.999 -99.9 -99.99 -9.99
2020/02/17 10:12 CST   -0.68 -99.99 -999 -999 -999 -99.9 -99.9 -999.9 -9.9 -9.999 -99.9 -99.99 -9.99
2020/02/17 10:18 CST   -0.67 -99.99 -999 -999 -999 -99.9 -99.9 -999.9 -9.9 -9.999 -99.9 -99.99 -9.99
2020/02/17 10:24 CST   -0.66 -99.99 -999 -999 -999 -99.9 -99.9 -999.9 -9.9 -9.999 -99.9 -99.99 -9.99
2020/02/17 10:30 CST   -0.64 -99.99 -999 -999 -999 -99.9 -99.9 -999.9 -9.9 -9.999 -99.9 -99.99 -9.99
2020/02/17 10:36 CST   -0.63 -99.99 -999 -999 -999 -99.9 -99.9 -999.9 -9.9 -9.999 -99.9 -99.99 -9.99
2020/02/17 10:42 CST   -0.61 -99.99 -999 -999 -999 -99.9 -99.9 -999.9 -9.9 -9.999 -99.9 -99.99 -9.99
2020/02/17 10:48 CST   -0.60 -99.99 -999 -999 -999 -99.9 -99.9 -999.9 -9.9 -9.999 -99.9 -99.99 -9.99
2020/02/17 10:54 CST   -0.58 -99.99 -999 -999 -999 -99.9 -99.9 -999.9 -9.9 -9.999 -99.9 -99.99 -9.99
2020/02/17 11:00 CST   -0.57 -99.99 -999 -999 -999 -99.9 -99.9 -999.9 -9.9 -9.999 -99.9 -99.99 -9.99
2020/02/17 11:06 CST   -0.55 -99.99 -999 -999 -999 -99.9 -99.9 -999.9 -9.9 -9.999 -99.9 -99.99 -9.99
2020/02/17 11:12 CST   -0.54 -99.99 -999 -999 -999 -99.9 -99.9 -999.9 -9.9 -9.999 -99.9 -99.99 -9.99
2020/02/17 11:18 CST   -0.52 -99.99 -999 -999 -999 -99.9 -99.9 -999.9 -9.9 -9.999 -99.9 -99.99 -9.99
2020/02/17 11:24 CST   -0.50 -99.99 -999 -999 -999 -99.9 -99.9 -999.9 -9.9 -9.999 -99.9 -99.99 -9.99
2020/02/17 11:30 CST   -0.48 -99.99 -999 -999 -999 -99.9 -99.9 -999.9 -9.9 -9.999 -99.9 -99.99 -9.99
2020/02/17 11:36 CST   -0.46 -99.99 -999 -999 -999 -99.9 -99.9 -999.9 -9.9 -9.999 -99.9 -99.99 -9.99
2020/02/17 11:42 CST   -0.44 -99.99 -999 -999 -999 -99.9 -99.9 -999.9 -9.9 -9.999 -99.9 -99.99 -9.99
2020/02/17 11:48 CST   -0.42 -99.99 -999 -999 -999 -99.9 -99.9 -999.9 -9.9 -9.999 -99.9 -99.99 -9.99
2020/02/17 11:54 CST   -0.40 -99.99 -999 -999 -999 -99.9 -99.9 -999.9 -9.9 -9.999 -99.9 -99.99 -9.99
2020/02/17 12:00 CST   -0.38 -99.99 -999 -999 -999 -99.9 -99.9 -999.9 -9.9 -9.999 -99.9 -99.99 -9.99
2020/02/17 12:06 CST   -0.36 -99.99 -999 -999 -999 -99.9 -99.9 -999.9 -9.9 -9.999 -99.9 -99.99 -9.99
2020/02/17 12:12 CST   -0.34 -99.99 -999 -999 -999 -99.9 -99.9 -999.9 -9.9 -9.999 -99.9 -99.99 -9.99
2020/02/17 12:18 CST   -0.31 -99.99 -999 -999 -999 -99.9 -99.9 -999.9 -9.9 -9.999 -99.9 -99.99 -9.99
2020/02/17 12:24 CST   -0.29 -99.99 -999 -999 -999 -99.9 -99.9 -999.9 -9.9 -9.999 -99.9 -99.99 -9.99
2020/02/17 12:30 CST   -0.26 -99.99 -999 -999 -999 -99.9 -99.9 -999.9 -9.9 -9.999 -99.9 -99.99 -9.99
2020/02/17 12:36 CST   -0.24 -99.99 -999 -999 -999 -99.9 -99.9 -999.9 -9.9 -9.999 -99.9 -99.99 -9.99
2020/02/17 12:42 CST   -0.21 -99.99 -999 -999 -999 -99.9 -99.9 -999.9 -9.9 -9.999 -99.9 -99.99 -9.99
2020/02/17 12:48 CST   -0.19 -99.99 -999 -999 -999 -99.9 -99.9 -999.9 -9.9 -9.999 -99.9 -99.99 -9.99
2020/02/17 12:54 CST   -0.16 -99.99 -999 -999 -999 -99.9 -99.9 -999.9 -9.9 -9.999 -99.9 -99.99 -9.99
2020/02/17 13:00 CST   -0.13 -99.99 -999 -999 -999 -99.9 -99.9 -999.9 -9.9 -9.999 -99.9 -99.99 -9.99
2020/02/17 13:06 CST   -0.11 -99.99 -999 -999 -999 -99.9 -99.9 -999.9 -9.9 -9.999 -99.9 -99.99 -9.99
2020/02/17 13:12 CST   -0.08 -99.99 -999 -999 -999 -99.9 -99.9 -999.9 -9.9 -9.999 -99.9 -99.99 -9.99
2020/02/17 13:18 CST   -0.05 -99.99 -999 -999 -999 -99.9 -99.9 -999.9 -9.9 -9.999 -99.9 -99.99 -9.99